sensor_id;sensor_type;location;lat;lon;timestamp;pressure;altitude;pressure_sealevel;temperature;humidity
73624;BME280;61921;53.226;-1.296;2022-09-11T00:01:43;100979.68;;;18.23;74.73
73624;BME280;61921;53.226;-1.296;2022-09-11T00:04:09;100978.42;;;18.28;74.24
73624;BME280;61921;53.226;-1.296;2022-09-11T00:06:33;100977.65;;;18.34;74.24
73624;BME280;61921;53.226;-1.296;2022-09-11T00:09:02;100974.46;;;18.05;75.26
73624;BME280;61921;53.226;-1.296;2022-09-11T00:11:24;100972.64;;;18.19;74.83
73624;BME280;61921;53.226;-1.296;2022-09-11T00:13:50;100973.45;;;18.27;74.55
73624;BME280;61921;53.226;-1.296;2022-09-11T00:16:19;100974.55;;;18.37;74.15
73624;BME280;61921;53.226;-1.296;2022-09-11T00:18:39;100976.55;;;18.40;74.18
73624;BME280;61921;53.226;-1.296;2022-09-11T00:21:05;100980.36;;;18.40;73.99
73624;BME280;61921;53.226;-1.296;2022-09-11T00:23:30;100981.14;;;18.36;74.36
73624;BME280;61921;53.226;-1.296;2022-09-11T00:26:00;100984.75;;;18.30;74.48
73624;BME280;61921;53.226;-1.296;2022-09-11T00:28:24;100982.67;;;18.33;74.50
73624;BME280;61921;53.226;-1.296;2022-09-11T00:30:56;100979.99;;;18.13;74.95
73624;BME280;61921;53.226;-1.296;2022-09-11T00:33:13;100980.53;;;18.08;75.48
73624;BME280;61921;53.226;-1.296;2022-09-11T00:35:37;100981.03;;;18.06;75.49
73624;BME280;61921;53.226;-1.296;2022-09-11T00:38:03;100982.90;;;17.76;76.54
73624;BME280;61921;53.226;-1.296;2022-09-11T00:40:28;100985.68;;;18.01;75.97
73624;BME280;61921;53.226;-1.296;2022-09-11T00:42:54;100985.31;;;18.12;75.48
73624;BME280;61921;53.226;-1.296;2022-09-11T00:45:22;100980.26;;;18.16;75.42
73624;BME280;61921;53.226;-1.296;2022-09-11T00:47:45;100974.11;;;18.18;75.19
73624;BME280;61921;53.226;-1.296;2022-09-11T00:50:12;100970.30;;;18.19;74.52
73624;BME280;61921;53.226;-1.296;2022-09-11T00:52:39;100970.35;;;18.09;74.96
73624;BME280;61921;53.226;-1.296;2022-09-11T00:55:05;100971.37;;;17.69;76.69
73624;BME280;61921;53.226;-1.296;2022-09-11T00:57:29;100962.42;;;17.69;76.34
73624;BME280;61921;53.226;-1.296;2022-09-11T00:59:55;100961.23;;;17.66;76.00
73624;BME280;61921;53.226;-1.296;2022-09-11T01:02:18;100958.91;;;17.43;76.90
73624;BME280;61921;53.226;-1.296;2022-09-11T01:04:44;100954.92;;;17.09;77.97
73624;BME280;61921;53.226;-1.296;2022-09-11T01:07:09;100952.98;;;17.16;77.56
73624;BME280;61921;53.226;-1.296;2022-09-11T01:09:33;100956.54;;;16.96;78.30
73624;BME280;61921;53.226;-1.296;2022-09-11T01:12:05;100954.23;;;16.52;80.08
73624;BME280;61921;53.226;-1.296;2022-09-11T01:14:31;100951.71;;;16.62;79.47
73624;BME280;61921;53.226;-1.296;2022-09-11T01:16:53;100949.50;;;16.57;79.75
73624;BME280;61921;53.226;-1.296;2022-09-11T01:19:26;100952.23;;;16.47;80.22
73624;BME280;61921;53.226;-1.296;2022-09-11T01:21:57;100951.06;;;16.48;79.29
73624;BME280;61921;53.226;-1.296;2022-09-11T01:24:18;100951.76;;;16.52;78.53
73624;BME280;61921;53.226;-1.296;2022-09-11T01:26:42;100949.32;;;16.51;78.22
73624;BME280;61921;53.226;-1.296;2022-09-11T01:29:02;100953.10;;;16.42;78.70
73624;BME280;61921;53.226;-1.296;2022-09-11T01:31:28;100950.28;;;16.32;80.08
73624;BME280;61921;53.226;-1.296;2022-09-11T01:33:53;100952.59;;;16.28;79.41
73624;BME280;61921;53.226;-1.296;2022-09-11T01:36:18;100951.12;;;16.23;79.28
73624;BME280;61921;53.226;-1.296;2022-09-11T01:38:43;100954.11;;;16.24;79.45
73624;BME280;61921;53.226;-1.296;2022-09-11T01:41:08;100955.82;;;15.89;82.01
73624;BME280;61921;53.226;-1.296;2022-09-11T01:43:35;100958.23;;;16.07;80.51
73624;BME280;61921;53.226;-1.296;2022-09-11T01:45:58;100958.07;;;15.96;80.42
73624;BME280;61921;53.226;-1.296;2022-09-11T01:48:24;100956.82;;;15.96;80.85
73624;BME280;61921;53.226;-1.296;2022-09-11T01:50:49;100953.91;;;15.99;80.96
73624;BME280;61921;53.226;-1.296;2022-09-11T01:53:16;100951.86;;;16.05;79.27
73624;BME280;61921;53.226;-1.296;2022-09-11T01:55:40;100953.57;;;16.03;78.78
73624;BME280;61921;53.226;-1.296;2022-09-11T01:58:07;100953.32;;;15.93;79.58
73624;BME280;61921;53.226;-1.296;2022-09-11T02:00:30;100954.01;;;15.96;79.50
73624;BME280;61921;53.226;-1.296;2022-09-11T02:02:58;100956.83;;;16.02;79.17
73624;BME280;61921;53.226;-1.296;2022-09-11T02:05:23;100956.98;;;16.04;79.25
73624;BME280;61921;53.226;-1.296;2022-09-11T02:07:48;100957.48;;;16.09;79.42
73624;BME280;61921;53.226;-1.296;2022-09-11T02:10:14;100956.66;;;16.11;79.33
73624;BME280;61921;53.226;-1.296;2022-09-11T02:12:40;100955.23;;;16.21;79.36
73624;BME280;61921;53.226;-1.296;2022-09-11T02:15:02;100952.39;;;16.30;79.13
73624;BME280;61921;53.226;-1.296;2022-09-11T02:17:34;100949.83;;;16.37;79.19
73624;BME280;61921;53.226;-1.296;2022-09-11T02:19:54;100949.05;;;16.45;78.86
73624;BME280;61921;53.226;-1.296;2022-09-11T02:22:18;100947.07;;;16.53;78.61
73624;BME280;61921;53.226;-1.296;2022-09-11T02:24:43;100947.24;;;16.60;78.28
73624;BME280;61921;53.226;-1.296;2022-09-11T02:27:13;100942.65;;;16.68;77.86
73624;BME280;61921;53.226;-1.296;2022-09-11T02:29:36;100945.48;;;16.76;77.93
73624;BME280;61921;53.226;-1.296;2022-09-11T02:32:00;100943.59;;;16.84;77.89
73624;BME280;61921;53.226;-1.296;2022-09-11T02:34:28;100944.64;;;16.76;78.12
73624;BME280;61921;53.226;-1.296;2022-09-11T02:37:02;100945.41;;;16.44;79.34
73624;BME280;61921;53.226;-1.296;2022-09-11T02:39:28;100941.03;;;16.67;78.57
73624;BME280;61921;53.226;-1.296;2022-09-11T02:41:50;100939.00;;;16.74;78.18
73624;BME280;61921;53.226;-1.296;2022-09-11T02:44:13;100934.30;;;16.73;78.36
73624;BME280;61921;53.226;-1.296;2022-09-11T02:46:47;100933.20;;;16.77;78.84
73624;BME280;61921;53.226;-1.296;2022-09-11T02:49:04;100934.92;;;16.26;80.68
73624;BME280;61921;53.226;-1.296;2022-09-11T02:51:27;100932.50;;;15.83;82.66
73624;BME280;61921;53.226;-1.296;2022-09-11T02:53:56;100929.50;;;15.68;83.73
73624;BME280;61921;53.226;-1.296;2022-09-11T02:56:20;100927.64;;;15.90;82.95
73624;BME280;61921;53.226;-1.296;2022-09-11T02:58:43;100924.20;;;16.04;81.64
73624;BME280;61921;53.226;-1.296;2022-09-11T03:01:07;100921.76;;;16.21;81.01
73624;BME280;61921;53.226;-1.296;2022-09-11T03:03:36;100914.83;;;16.38;80.31
73624;BME280;61921;53.226;-1.296;2022-09-11T03:05:56;100915.12;;;16.39;80.31
73624;BME280;61921;53.226;-1.296;2022-09-11T03:08:22;100919.45;;;16.57;79.68
73624;BME280;61921;53.226;-1.296;2022-09-11T03:10:47;100920.91;;;16.67;79.43
73624;BME280;61921;53.226;-1.296;2022-09-11T03:13:13;100924.73;;;16.75;79.09
73624;BME280;61921;53.226;-1.296;2022-09-11T03:15:39;100926.81;;;16.58;79.25
73624;BME280;61921;53.226;-1.296;2022-09-11T03:18:05;100929.38;;;16.70;78.95
73624;BME280;61921;53.226;-1.296;2022-09-11T03:20:30;100929.13;;;16.70;78.70
73624;BME280;61921;53.226;-1.296;2022-09-11T03:22:55;100931.55;;;16.74;78.57
73624;BME280;61921;53.226;-1.296;2022-09-11T03:25:20;100930.89;;;16.91;78.03
73624;BME280;61921;53.226;-1.296;2022-09-11T03:27:46;100924.59;;;16.90;77.89
73624;BME280;61921;53.226;-1.296;2022-09-11T03:30:12;100919.11;;;16.93;77.81
73624;BME280;61921;53.226;-1.296;2022-09-11T03:32:37;100915.73;;;16.98;78.02
73624;BME280;61921;53.226;-1.296;2022-09-11T03:35:03;100917.49;;;17.10;77.76
73624;BME280;61921;53.226;-1.296;2022-09-11T03:37:28;100918.48;;;17.12;77.64
73624;BME280;61921;53.226;-1.296;2022-09-11T03:39:54;100918.60;;;17.17;77.56
73624;BME280;61921;53.226;-1.296;2022-09-11T03:42:20;100918.02;;;17.24;77.40
73624;BME280;61921;53.226;-1.296;2022-09-11T03:44:46;100913.36;;;17.23;77.41
73624;BME280;61921;53.226;-1.296;2022-09-11T03:47:11;100914.11;;;17.27;77.18
73624;BME280;61921;53.226;-1.296;2022-09-11T03:49:36;100917.43;;;17.36;76.92
73624;BME280;61921;53.226;-1.296;2022-09-11T03:52:03;100915.35;;;17.38;76.93
73624;BME280;61921;53.226;-1.296;2022-09-11T03:54:28;100915.49;;;17.22;77.79
73624;BME280;61921;53.226;-1.296;2022-09-11T03:56:53;100913.17;;;17.05;78.79
73624;BME280;61921;53.226;-1.296;2022-09-11T03:59:19;100909.46;;;17.10;78.55
73624;BME280;61921;53.226;-1.296;2022-09-11T04:01:44;100907.32;;;17.05;78.92
73624;BME280;61921;53.226;-1.296;2022-09-11T04:04:10;100907.93;;;17.14;78.44
73624;BME280;61921;53.226;-1.296;2022-09-11T04:06:36;100907.84;;;17.18;78.16
73624;BME280;61921;53.226;-1.296;2022-09-11T04:09:01;100908.05;;;17.25;78.04
73624;BME280;61921;53.226;-1.296;2022-09-11T04:11:26;100906.01;;;17.30;77.68
73624;BME280;61921;53.226;-1.296;2022-09-11T04:13:52;100902.42;;;17.33;77.52
73624;BME280;61921;53.226;-1.296;2022-09-11T04:16:18;100901.08;;;17.36;77.41
73624;BME280;61921;53.226;-1.296;2022-09-11T04:18:45;100900.65;;;17.38;77.21
73624;BME280;61921;53.226;-1.296;2022-09-11T04:21:11;100899.26;;;17.18;77.80
73624;BME280;61921;53.226;-1.296;2022-09-11T04:23:34;100896.29;;;17.10;78.39
73624;BME280;61921;53.226;-1.296;2022-09-11T04:26:00;100893.09;;;17.17;77.94
73624;BME280;61921;53.226;-1.296;2022-09-11T04:28:26;100893.56;;;17.33;77.58
73624;BME280;61921;53.226;-1.296;2022-09-11T04:30:51;100890.16;;;17.40;77.08
73624;BME280;61921;53.226;-1.296;2022-09-11T04:33:16;100887.18;;;17.35;77.54
73624;BME280;61921;53.226;-1.296;2022-09-11T04:35:42;100888.03;;;17.26;77.90
73624;BME280;61921;53.226;-1.296;2022-09-11T04:38:08;100888.20;;;17.22;77.87
73624;BME280;61921;53.226;-1.296;2022-09-11T04:40:34;100886.59;;;17.22;77.92
73624;BME280;61921;53.226;-1.296;2022-09-11T04:42:58;100887.70;;;17.09;78.32
73624;BME280;61921;53.226;-1.296;2022-09-11T04:45:23;100884.14;;;16.86;79.24
73624;BME280;61921;53.226;-1.296;2022-09-11T04:47:49;100884.70;;;16.73;80.08
73624;BME280;61921;53.226;-1.296;2022-09-11T04:50:15;100882.77;;;16.82;79.60
73624;BME280;61921;53.226;-1.296;2022-09-11T04:52:40;100882.10;;;16.84;79.62
73624;BME280;61921;53.226;-1.296;2022-09-11T04:55:06;100882.93;;;16.93;79.17
73624;BME280;61921;53.226;-1.296;2022-09-11T04:57:31;100882.87;;;16.97;79.18
73624;BME280;61921;53.226;-1.296;2022-09-11T04:59:57;100884.51;;;16.96;78.98
73624;BME280;61921;53.226;-1.296;2022-09-11T05:02:22;100883.77;;;16.85;79.41
73624;BME280;61921;53.226;-1.296;2022-09-11T05:04:48;100886.96;;;16.79;79.45
73624;BME280;61921;53.226;-1.296;2022-09-11T05:07:14;100890.11;;;16.82;79.38
73624;BME280;61921;53.226;-1.296;2022-09-11T05:09:39;100890.69;;;16.55;80.29
73624;BME280;61921;53.226;-1.296;2022-09-11T05:12:05;100888.39;;;16.37;81.02
73624;BME280;61921;53.226;-1.296;2022-09-11T05:14:31;100891.70;;;16.32;81.60
73624;BME280;61921;53.226;-1.296;2022-09-11T05:16:56;100890.63;;;16.45;80.89
73624;BME280;61921;53.226;-1.296;2022-09-11T05:19:21;100891.86;;;16.56;80.29
73624;BME280;61921;53.226;-1.296;2022-09-11T05:21:47;100895.34;;;16.43;80.84
73624;BME280;61921;53.226;-1.296;2022-09-11T05:24:18;100894.07;;;16.55;80.49
73624;BME280;61921;53.226;-1.296;2022-09-11T05:26:38;100894.01;;;16.56;80.28
73624;BME280;61921;53.226;-1.296;2022-09-11T05:29:06;100893.20;;;16.66;80.05
73624;BME280;61921;53.226;-1.296;2022-09-11T05:31:29;100893.38;;;16.66;79.92
73624;BME280;61921;53.226;-1.296;2022-09-11T05:33:55;100893.34;;;16.75;79.75
73624;BME280;61921;53.226;-1.296;2022-09-11T05:36:20;100896.24;;;16.74;79.59
73624;BME280;61921;53.226;-1.296;2022-09-11T05:38:45;100897.02;;;16.73;79.48
73624;BME280;61921;53.226;-1.296;2022-09-11T05:41:12;100897.26;;;16.71;79.21
73624;BME280;61921;53.226;-1.296;2022-09-11T05:43:37;100898.11;;;16.68;79.33
73624;BME280;61921;53.226;-1.296;2022-09-11T05:46:03;100896.65;;;16.50;79.90
73624;BME280;61921;53.226;-1.296;2022-09-11T05:48:29;100897.68;;;16.56;80.11
73624;BME280;61921;53.226;-1.296;2022-09-11T05:50:54;100899.80;;;16.44;80.43
73624;BME280;61921;53.226;-1.296;2022-09-11T05:53:19;100902.23;;;16.32;81.22
73624;BME280;61921;53.226;-1.296;2022-09-11T05:55:44;100903.78;;;16.32;81.17
73624;BME280;61921;53.226;-1.296;2022-09-11T05:58:09;100907.38;;;16.28;81.66
73624;BME280;61921;53.226;-1.296;2022-09-11T06:00:35;100906.06;;;16.44;81.28
73624;BME280;61921;53.226;-1.296;2022-09-11T06:03:00;100907.48;;;16.59;80.58
73624;BME280;61921;53.226;-1.296;2022-09-11T06:05:26;100905.42;;;16.47;81.00
73624;BME280;61921;53.226;-1.296;2022-09-11T06:07:52;100905.00;;;16.51;80.79
73624;BME280;61921;53.226;-1.296;2022-09-11T06:10:16;100901.80;;;16.56;80.32
73624;BME280;61921;53.226;-1.296;2022-09-11T06:12:42;100905.17;;;16.72;80.25
73624;BME280;61921;53.226;-1.296;2022-09-11T06:15:08;100900.96;;;16.84;79.82
73624;BME280;61921;53.226;-1.296;2022-09-11T06:17:33;100902.78;;;16.80;79.73
73624;BME280;61921;53.226;-1.296;2022-09-11T06:19:58;100900.64;;;16.96;79.45
73624;BME280;61921;53.226;-1.296;2022-09-11T06:22:24;100895.60;;;16.91;79.66
73624;BME280;61921;53.226;-1.296;2022-09-11T06:24:49;100899.92;;;17.02;79.22
73624;BME280;61921;53.226;-1.296;2022-09-11T06:27:22;100904.77;;;16.98;78.99
73624;BME280;61921;53.226;-1.296;2022-09-11T06:29:40;100904.74;;;17.02;78.81
73624;BME280;61921;53.226;-1.296;2022-09-11T06:32:06;100909.11;;;17.09;78.74
73624;BME280;61921;53.226;-1.296;2022-09-11T06:34:31;100907.12;;;17.04;78.48
73624;BME280;61921;53.226;-1.296;2022-09-11T06:36:56;100911.20;;;17.10;78.23
73624;BME280;61921;53.226;-1.296;2022-09-11T06:39:22;100912.16;;;17.02;78.02
73624;BME280;61921;53.226;-1.296;2022-09-11T06:41:47;100912.69;;;17.01;78.42
73624;BME280;61921;53.226;-1.296;2022-09-11T06:44:13;100912.18;;;17.09;78.38
73624;BME280;61921;53.226;-1.296;2022-09-11T06:46:38;100912.02;;;17.09;78.29
73624;BME280;61921;53.226;-1.296;2022-09-11T06:49:04;100913.93;;;17.12;78.36
73624;BME280;61921;53.226;-1.296;2022-09-11T06:51:30;100914.93;;;17.05;78.97
73624;BME280;61921;53.226;-1.296;2022-09-11T06:53:57;100912.54;;;17.14;78.71
73624;BME280;61921;53.226;-1.296;2022-09-11T06:56:21;100913.49;;;17.27;78.52
73624;BME280;61921;53.226;-1.296;2022-09-11T06:58:46;100911.80;;;17.23;78.51
73624;BME280;61921;53.226;-1.296;2022-09-11T07:01:14;100909.44;;;17.36;78.17
73624;BME280;61921;53.226;-1.296;2022-09-11T07:03:40;100909.14;;;17.41;78.00
73624;BME280;61921;53.226;-1.296;2022-09-11T07:06:04;100912.11;;;17.32;78.14
73624;BME280;61921;53.226;-1.296;2022-09-11T07:08:28;100915.33;;;17.21;78.69
73624;BME280;61921;53.226;-1.296;2022-09-11T07:10:53;100919.14;;;17.41;78.51
73624;BME280;61921;53.226;-1.296;2022-09-11T07:13:18;100917.60;;;17.37;78.20
73624;BME280;61921;53.226;-1.296;2022-09-11T07:15:44;100916.91;;;17.36;78.38
73624;BME280;61921;53.226;-1.296;2022-09-11T07:18:10;100921.38;;;17.44;77.76
73624;BME280;61921;53.226;-1.296;2022-09-11T07:20:38;100925.21;;;17.52;77.56
73624;BME280;61921;53.226;-1.296;2022-09-11T07:23:00;100929.27;;;17.41;78.34
73624;BME280;61921;53.226;-1.296;2022-09-11T07:25:26;100926.35;;;17.25;78.85
73624;BME280;61921;53.226;-1.296;2022-09-11T07:27:51;100926.50;;;17.42;78.45
73624;BME280;61921;53.226;-1.296;2022-09-11T07:30:17;100925.93;;;17.54;78.21
73624;BME280;61921;53.226;-1.296;2022-09-11T07:32:42;100928.44;;;17.46;78.02
73624;BME280;61921;53.226;-1.296;2022-09-11T07:35:08;100920.02;;;17.53;77.82
73624;BME280;61921;53.226;-1.296;2022-09-11T07:37:33;100914.80;;;17.36;77.76
73624;BME280;61921;53.226;-1.296;2022-09-11T07:39:59;100916.78;;;17.34;77.91
73624;BME280;61921;53.226;-1.296;2022-09-11T07:42:25;100919.62;;;17.33;77.76
73624;BME280;61921;53.226;-1.296;2022-09-11T07:44:51;100915.56;;;17.31;77.87
73624;BME280;61921;53.226;-1.296;2022-09-11T07:47:16;100913.13;;;17.15;78.53
73624;BME280;61921;53.226;-1.296;2022-09-11T07:49:43;100911.22;;;16.91;79.37
73624;BME280;61921;53.226;-1.296;2022-09-11T07:52:07;100909.41;;;16.95;79.57
73624;BME280;61921;53.226;-1.296;2022-09-11T07:54:33;100911.70;;;17.10;78.67
73624;BME280;61921;53.226;-1.296;2022-09-11T07:56:59;100914.02;;;17.09;78.77
73624;BME280;61921;53.226;-1.296;2022-09-11T07:59:24;100912.77;;;17.25;78.14
73624;BME280;61921;53.226;-1.296;2022-09-11T08:01:50;100906.03;;;17.23;77.77
73624;BME280;61921;53.226;-1.296;2022-09-11T08:04:15;100904.73;;;17.24;78.08
73624;BME280;61921;53.226;-1.296;2022-09-11T08:06:42;100903.18;;;17.24;77.86
73624;BME280;61921;53.226;-1.296;2022-09-11T08:09:08;100898.00;;;17.21;77.33
73624;BME280;61921;53.226;-1.296;2022-09-11T08:11:35;100897.41;;;17.40;77.37
73624;BME280;61921;53.226;-1.296;2022-09-11T08:13:57;100900.26;;;17.58;76.28
73624;BME280;61921;53.226;-1.296;2022-09-11T08:16:25;100904.83;;;17.75;75.28
73624;BME280;61921;53.226;-1.296;2022-09-11T08:18:49;100903.70;;;17.86;74.82
73624;BME280;61921;53.226;-1.296;2022-09-11T08:21:14;100901.30;;;17.86;74.94
73624;BME280;61921;53.226;-1.296;2022-09-11T08:23:42;100896.57;;;17.63;75.40
73624;BME280;61921;53.226;-1.296;2022-09-11T08:26:06;100894.75;;;17.89;75.30
73624;BME280;61921;53.226;-1.296;2022-09-11T08:28:32;100898.04;;;18.07;73.99
73624;BME280;61921;53.226;-1.296;2022-09-11T08:30:57;100900.33;;;18.19;73.23
73624;BME280;61921;53.226;-1.296;2022-09-11T08:33:22;100904.33;;;18.26;73.37
73624;BME280;61921;53.226;-1.296;2022-09-11T08:35:47;100904.71;;;18.17;72.83
73624;BME280;61921;53.226;-1.296;2022-09-11T08:38:13;100901.22;;;17.97;73.74
73624;BME280;61921;53.226;-1.296;2022-09-11T08:40:39;100899.38;;;18.15;73.91
73624;BME280;61921;53.226;-1.296;2022-09-11T08:43:04;100899.83;;;18.12;73.57
73624;BME280;61921;53.226;-1.296;2022-09-11T08:45:33;100900.77;;;18.14;73.58
73624;BME280;61921;53.226;-1.296;2022-09-11T08:47:56;100899.82;;;18.05;73.79
73624;BME280;61921;53.226;-1.296;2022-09-11T08:50:22;100894.32;;;18.16;73.96
73624;BME280;61921;53.226;-1.296;2022-09-11T08:52:46;100897.45;;;18.48;72.87
73624;BME280;61921;53.226;-1.296;2022-09-11T08:55:12;100901.52;;;18.36;72.67
73624;BME280;61921;53.226;-1.296;2022-09-11T08:57:43;100902.04;;;18.55;72.46
73624;BME280;61921;53.226;-1.296;2022-09-11T09:00:06;100902.91;;;18.64;72.04
73624;BME280;61921;53.226;-1.296;2022-09-11T09:02:40;100902.24;;;18.73;72.26
73624;BME280;61921;53.226;-1.296;2022-09-11T09:05:03;100905.96;;;18.67;72.08
73624;BME280;61921;53.226;-1.296;2022-09-11T09:07:25;100905.73;;;18.66;72.37
73624;BME280;61921;53.226;-1.296;2022-09-11T09:09:51;100905.80;;;18.66;72.41
73624;BME280;61921;53.226;-1.296;2022-09-11T09:12:15;100904.07;;;18.57;72.80
73624;BME280;61921;53.226;-1.296;2022-09-11T09:14:48;100903.50;;;18.81;72.05
73624;BME280;61921;53.226;-1.296;2022-09-11T09:17:02;100903.47;;;18.79;72.55
73624;BME280;61921;53.226;-1.296;2022-09-11T09:19:28;100902.42;;;18.89;71.79
73624;BME280;61921;53.226;-1.296;2022-09-11T09:22:00;100906.17;;;18.94;72.02
73624;BME280;61921;53.226;-1.296;2022-09-11T09:24:18;100907.71;;;18.86;72.05
73624;BME280;61921;53.226;-1.296;2022-09-11T09:26:48;100913.15;;;18.69;72.18
73624;BME280;61921;53.226;-1.296;2022-09-11T09:29:13;100914.90;;;18.52;72.93
73624;BME280;61921;53.226;-1.296;2022-09-11T09:31:32;100918.05;;;18.58;72.99
73624;BME280;61921;53.226;-1.296;2022-09-11T09:34:01;100919.29;;;18.71;72.89
73624;BME280;61921;53.226;-1.296;2022-09-11T09:36:28;100914.10;;;18.88;72.46
73624;BME280;61921;53.226;-1.296;2022-09-11T09:38:48;100910.12;;;18.89;71.72
73624;BME280;61921;53.226;-1.296;2022-09-11T09:43:48;100915.07;;;19.11;72.11
73624;BME280;61921;53.226;-1.296;2022-09-11T09:46:13;100911.70;;;19.19;71.18
73624;BME280;61921;53.226;-1.296;2022-09-11T09:48:33;100908.51;;;18.89;72.26
73624;BME280;61921;53.226;-1.296;2022-09-11T09:50:54;100902.36;;;18.91;72.16
73624;BME280;61921;53.226;-1.296;2022-09-11T09:53:27;100903.34;;;19.17;71.17
73624;BME280;61921;53.226;-1.296;2022-09-11T09:55:46;100899.67;;;19.51;70.56
73624;BME280;61921;53.226;-1.296;2022-09-11T09:58:12;100903.00;;;19.82;69.49
73624;BME280;61921;53.226;-1.296;2022-09-11T10:00:39;100903.79;;;19.97;68.32
73624;BME280;61921;53.226;-1.296;2022-09-11T10:05:30;100900.00;;;20.21;66.84
73624;BME280;61921;53.226;-1.296;2022-09-11T10:07:55;100895.75;;;20.17;66.21
73624;BME280;61921;53.226;-1.296;2022-09-11T10:10:22;100895.30;;;20.07;67.02
73624;BME280;61921;53.226;-1.296;2022-09-11T10:12:44;100890.78;;;20.18;66.70
73624;BME280;61921;53.226;-1.296;2022-09-11T10:15:17;100890.04;;;20.27;66.45
73624;BME280;61921;53.226;-1.296;2022-09-11T10:17:36;100888.96;;;20.31;66.24
73624;BME280;61921;53.226;-1.296;2022-09-11T10:20:12;100883.75;;;20.44;66.05
73624;BME280;61921;53.226;-1.296;2022-09-11T10:22:29;100885.92;;;20.41;66.37
73624;BME280;61921;53.226;-1.296;2022-09-11T10:24:59;100889.38;;;20.58;65.90
73624;BME280;61921;53.226;-1.296;2022-09-11T10:27:17;100884.67;;;20.53;65.08
73624;BME280;61921;53.226;-1.296;2022-09-11T10:29:47;100875.95;;;20.80;65.14
73624;BME280;61921;53.226;-1.296;2022-09-11T10:32:15;100873.38;;;20.91;64.50
73624;BME280;61921;53.226;-1.296;2022-09-11T10:34:35;100870.88;;;21.06;63.55
73624;BME280;61921;53.226;-1.296;2022-09-11T10:37:02;100868.70;;;21.32;64.94
73624;BME280;61921;53.226;-1.296;2022-09-11T10:39:25;100861.76;;;21.30;62.87
73624;BME280;61921;53.226;-1.296;2022-09-11T10:41:52;100857.76;;;21.00;63.34
73624;BME280;61921;53.226;-1.296;2022-09-11T10:44:16;100858.08;;;21.06;62.95
73624;BME280;61921;53.226;-1.296;2022-09-11T10:46:41;100860.13;;;20.92;64.43
73624;BME280;61921;53.226;-1.296;2022-09-11T10:49:16;100862.56;;;20.92;64.65
73624;BME280;61921;53.226;-1.296;2022-09-11T10:51:33;100860.54;;;21.11;64.07
73624;BME280;61921;53.226;-1.296;2022-09-11T10:54:02;100862.50;;;21.10;63.37
73624;BME280;61921;53.226;-1.296;2022-09-11T10:56:23;100861.54;;;21.07;64.07
73624;BME280;61921;53.226;-1.296;2022-09-11T10:58:51;100857.99;;;21.24;62.87
73624;BME280;61921;53.226;-1.296;2022-09-11T11:01:13;100856.97;;;21.06;62.91
73624;BME280;61921;53.226;-1.296;2022-09-11T11:03:38;100857.75;;;21.22;63.01
73624;BME280;61921;53.226;-1.296;2022-09-11T11:06:16;100851.36;;;21.25;62.26
73624;BME280;61921;53.226;-1.296;2022-09-11T11:11:08;100852.57;;;21.20;62.19
73624;BME280;61921;53.226;-1.296;2022-09-11T11:13:31;100850.79;;;21.48;62.44
73624;BME280;61921;53.226;-1.296;2022-09-11T11:15:53;100848.67;;;21.58;62.68
73624;BME280;61921;53.226;-1.296;2022-09-11T11:18:25;100839.28;;;21.76;62.08
73624;BME280;61921;53.226;-1.296;2022-09-11T11:20:43;100837.76;;;22.02;61.26
73624;BME280;61921;53.226;-1.296;2022-09-11T11:23:22;100833.84;;;21.99;60.43
73624;BME280;61921;53.226;-1.296;2022-09-11T11:25:31;100828.41;;;21.79;61.40
73624;BME280;61921;53.226;-1.296;2022-09-11T11:28:03;100827.99;;;21.61;62.26
73624;BME280;61921;53.226;-1.296;2022-09-11T11:30:18;100818.77;;;21.81;61.74
73624;BME280;61921;53.226;-1.296;2022-09-11T11:33:01;100811.13;;;22.39;61.92
73624;BME280;61921;53.226;-1.296;2022-09-11T11:35:20;100814.02;;;21.86;61.64
73624;BME280;61921;53.226;-1.296;2022-09-11T11:37:39;100815.45;;;21.60;61.87
73624;BME280;61921;53.226;-1.296;2022-09-11T11:40:02;100812.80;;;21.63;62.26
73624;BME280;61921;53.226;-1.296;2022-09-11T11:42:27;100810.62;;;21.81;62.32
73624;BME280;61921;53.226;-1.296;2022-09-11T11:44:52;100812.92;;;22.01;61.96
73624;BME280;61921;53.226;-1.296;2022-09-11T11:47:17;100814.82;;;22.08;62.36
73624;BME280;61921;53.226;-1.296;2022-09-11T11:49:49;100818.89;;;21.88;61.56
73624;BME280;61921;53.226;-1.296;2022-09-11T11:52:12;100823.12;;;21.85;61.83
73624;BME280;61921;53.226;-1.296;2022-09-11T11:54:36;100825.93;;;21.80;62.62
73624;BME280;61921;53.226;-1.296;2022-09-11T11:57:00;100821.34;;;21.71;62.33
73624;BME280;61921;53.226;-1.296;2022-09-11T11:59:25;100817.87;;;21.67;62.59
73624;BME280;61921;53.226;-1.296;2022-09-11T12:01:51;100820.60;;;21.81;62.79
73624;BME280;61921;53.226;-1.296;2022-09-11T12:04:20;100817.23;;;21.60;62.17
73624;BME280;61921;53.226;-1.296;2022-09-11T12:06:37;100817.04;;;21.30;63.34
73624;BME280;61921;53.226;-1.296;2022-09-11T12:09:03;100821.51;;;21.27;62.99
73624;BME280;61921;53.226;-1.296;2022-09-11T12:11:29;100814.01;;;21.26;62.44
73624;BME280;61921;53.226;-1.296;2022-09-11T12:13:53;100812.94;;;21.23;63.20
73624;BME280;61921;53.226;-1.296;2022-09-11T12:16:23;100810.09;;;21.17;63.05
73624;BME280;61921;53.226;-1.296;2022-09-11T12:28:26;100786.48;;;22.34;60.08
73624;BME280;61921;53.226;-1.296;2022-09-11T12:30:56;100786.04;;;22.49;59.81
73624;BME280;61921;53.226;-1.296;2022-09-11T12:35:43;100783.20;;;22.52;59.99
73624;BME280;61921;53.226;-1.296;2022-09-11T12:38:16;100778.28;;;22.47;60.35
73624;BME280;61921;53.226;-1.296;2022-09-11T12:40:36;100776.76;;;22.48;59.69
73624;BME280;61921;53.226;-1.296;2022-09-11T12:45:29;100772.89;;;22.49;59.81
73624;BME280;61921;53.226;-1.296;2022-09-11T12:47:47;100764.56;;;22.28;60.02
73624;BME280;61921;53.226;-1.296;2022-09-11T12:50:17;100761.47;;;22.46;59.92
73624;BME280;61921;53.226;-1.296;2022-09-11T12:52:45;100757.27;;;22.78;59.49